Time;durP1;ratioP1;P1;durP2;ratioP2;P2;SDS_P1;SDS_P2;PMS_P1;PMS_P2;Temp;Humidity;BMP_temperature;BMP_pressure;BME280_temperature;BME280_humidity;BME280_pressure;Samples;Min_cycle;Max_cycle;Signal;HPM_P1;HPM_P2
2023/01/07 00:01:23;;;;;;;6.77;4.17;;;11.60;99.90;;;;;;4979008;28;20180;-87
2023/01/07 00:03:50;;;;;;;5.43;3.97;;;11.60;99.90;;;;;;4982648;28;20182;-81
2023/01/07 00:06:22;;;;;;;8.87;4.60;;;11.50;99.90;;;;;;4991769;28;20234;-86
2023/01/07 00:08:53;;;;;;;7.33;4.63;;;11.60;99.90;;;;;;4987850;28;20172;-83
2023/01/07 00:11:31;;;;;;;11.30;4.97;;;11.60;99.90;;;;;;4987602;28;20164;-83
2023/01/07 00:13:58;;;;;;;9.23;4.83;;;11.50;99.90;;;;;;4989887;28;20186;-84
2023/01/07 00:16:28;;;;;;;7.83;4.70;;;11.60;99.90;;;;;;4986347;28;20228;-86
2023/01/07 00:18:56;;;;;;;6.07;4.30;;;11.60;99.90;;;;;;4986088;28;20223;-82
2023/01/07 00:21:23;;;;;;;6.50;4.60;;;11.50;99.90;;;;;;4980199;28;20178;-83
2023/01/07 00:23:59;;;;;;;7.60;4.83;;;11.40;99.90;;;;;;4976749;28;20179;-87
2023/01/07 00:26:34;;;;;;;6.63;5.03;;;11.50;99.90;;;;;;4977338;28;20172;-89
2023/01/07 00:29:00;;;;;;;7.43;4.40;;;11.40;99.90;;;;;;4984443;28;20256;-83
2023/01/07 00:31:34;;;;;;;6.67;4.80;;;11.40;99.90;;;;;;4975616;28;20672;-83
2023/01/07 00:34:08;;;;;;;5.23;4.40;;;11.40;99.90;;;;;;4974810;28;20167;-82
2023/01/07 00:36:38;;;;;;;9.30;5.27;;;11.40;99.90;;;;;;4982243;28;20163;-87
2023/01/07 00:39:08;;;;;;;9.03;5.17;;;11.40;99.90;;;;;;4990424;28;20179;-88
2023/01/07 00:41:35;;;;;;;8.93;5.27;;;11.40;99.90;;;;;;4982399;28;20198;-86
2023/01/07 00:44:01;;;;;;;8.60;5.27;;;11.40;99.90;;;;;;4980575;28;20186;-89
2023/01/07 00:46:28;;;;;;;9.53;5.43;;;11.50;99.90;;;;;;4979785;28;20180;-87
2023/01/07 00:48:55;;;;;;;8.53;5.57;;;11.40;99.90;;;;;;4978791;28;20163;-87
2023/01/07 00:51:20;;;;;;;6.73;4.80;;;11.40;99.90;;;;;;4979099;28;20172;-85
2023/01/07 00:53:47;;;;;;;10.17;5.60;;;11.40;99.90;;;;;;4978417;28;20191;-87
2023/01/07 00:56:14;;;;;;;7.50;5.33;;;11.30;99.90;;;;;;4978071;28;20179;-91
2023/01/07 00:58:40;;;;;;;8.53;5.33;;;11.40;99.90;;;;;;4985324;28;20179;-88
2023/01/07 01:01:06;;;;;;;6.77;4.47;;;11.40;99.90;;;;;;4991504;28;20179;-87
2023/01/07 01:03:33;;;;;;;10.07;5.37;;;11.40;99.90;;;;;;4989127;28;20706;-89
2023/01/07 01:06:09;;;;;;;8.57;4.63;;;11.40;99.90;;;;;;4990537;28;20219;-87
2023/01/07 01:08:35;;;;;;;9.07;5.27;;;11.40;99.90;;;;;;4990773;28;20167;-87
2023/01/07 01:11:05;;;;;;;7.90;5.37;;;11.40;99.90;;;;;;4985132;28;20283;-88
2023/01/07 01:13:32;;;;;;;8.93;5.20;;;11.40;99.90;;;;;;4983812;28;20279;-90
2023/01/07 01:15:57;;;;;;;6.50;4.63;;;11.40;99.90;;;;;;4980014;28;20223;-89
2023/01/07 01:18:24;;;;;;;6.97;4.60;;;11.40;99.90;;;;;;4984628;28;20152;-90
2023/01/07 01:20:50;;;;;;;7.13;4.80;;;11.40;99.90;;;;;;5001157;28;20190;-91
2023/01/07 01:23:16;;;;;;;9.10;5.03;;;11.40;99.90;;;;;;5000547;28;20176;-90
2023/01/07 01:25:41;;;;;;;6.03;4.10;;;11.40;99.90;;;;;;5001642;28;20211;-88
2023/01/07 01:28:09;;;;;;;6.87;4.60;;;11.40;99.90;;;;;;4990951;28;20640;-89
2023/01/07 01:30:35;;;;;;;8.33;4.97;;;11.30;99.90;;;;;;4979417;28;20175;-88
2023/01/07 01:33:00;;;;;;;6.13;4.30;;;11.30;99.90;;;;;;4993531;28;20199;-89
2023/01/07 01:35:26;;;;;;;5.80;4.43;;;11.30;99.90;;;;;;4981462;28;20171;-90
2023/01/07 01:37:52;;;;;;;7.33;4.20;;;11.40;99.90;;;;;;4978957;28;20662;-90
2023/01/07 01:40:17;;;;;;;6.30;4.57;;;11.40;99.90;;;;;;4999774;28;20164;-88
2023/01/07 01:42:46;;;;;;;8.10;4.33;;;11.40;99.90;;;;;;4987330;28;20679;-90
2023/01/07 01:45:13;;;;;;;6.33;4.53;;;11.40;99.90;;;;;;4979656;28;20219;-88
2023/01/07 01:48:01;;;;;;;5.33;4.10;;;11.40;99.90;;;;;;4980890;28;20168;-89
2023/01/07 01:50:47;;;;;;;7.13;4.60;;;11.40;99.90;;;;;;4979649;28;20172;-90
2023/01/07 01:53:32;;;;;;;7.23;4.87;;;11.50;99.90;;;;;;4978845;28;20216;-90
2023/01/07 01:56:16;;;;;;;6.80;4.20;;;11.40;99.90;;;;;;4979840;28;20635;-89
2023/01/07 01:58:58;;;;;;;6.30;4.47;;;11.40;99.90;;;;;;4977899;28;20195;-90
2023/01/07 02:01:23;;;;;;;6.67;4.93;;;11.40;99.90;;;;;;4978276;28;20179;-89
2023/01/07 02:03:50;;;;;;;9.80;4.63;;;11.50;99.90;;;;;;4977485;28;20195;-89
2023/01/07 02:06:29;;;;;;;5.73;3.83;;;11.50;99.90;;;;;;4976707;28;20215;-89
2023/01/07 02:08:55;;;;;;;5.73;4.10;;;11.50;99.90;;;;;;4960375;28;20594;-83
2023/01/07 02:11:24;;;;;;;5.00;3.80;;;11.50;99.90;;;;;;4977341;28;20187;-88
2023/01/07 02:14:14;;;;;;;5.87;4.07;;;11.60;99.90;;;;;;4977341;28;20171;-89
2023/01/07 02:17:20;;;;;;;7.47;4.10;;;11.50;99.90;;;;;;4987728;28;20179;-87
2023/01/07 02:20:07;;;;;;;6.67;4.40;;;11.50;99.90;;;;;;4987457;28;20219;-83
2023/01/07 02:23:12;;;;;;;6.10;3.90;;;11.50;99.90;;;;;;4978961;28;20176;-84
2023/01/07 02:26:04;;;;;;;7.00;4.03;;;11.50;99.90;;;;;;4975007;28;20223;-83
2023/01/07 02:28:41;;;;;;;4.67;3.70;;;11.50;99.90;;;;;;4992288;28;20591;-81
2023/01/07 02:31:25;;;;;;;5.83;3.80;;;11.60;99.90;;;;;;4989884;28;20170;-82
2023/01/07 02:34:06;;;;;;;8.07;3.80;;;11.60;99.90;;;;;;4987301;28;20167;-83
2023/01/07 02:36:37;;;;;;;6.70;3.67;;;11.60;99.90;;;;;;4996454;28;20164;-85
2023/01/07 02:39:17;;;;;;;5.47;3.80;;;11.80;99.90;;;;;;4983132;28;20167;-86
2023/01/07 02:42:03;;;;;;;6.10;3.43;;;11.60;99.90;;;;;;4976862;28;20286;-87
2023/01/07 02:44:48;;;;;;;5.63;3.67;;;11.60;99.90;;;;;;4978454;28;20203;-88
2023/01/07 02:47:40;;;;;;;4.63;3.27;;;11.60;99.90;;;;;;4980382;28;20168;-88
2023/01/07 02:50:07;;;;;;;4.37;3.27;;;11.70;99.90;;;;;;4982410;28;20246;-84
2023/01/07 02:52:34;;;;;;;5.57;3.87;;;11.70;99.90;;;;;;4983716;28;20176;-89
2023/01/07 02:55:12;;;;;;;5.63;3.43;;;11.70;99.90;;;;;;4976127;28;20180;-88
2023/01/07 02:58:13;;;;;;;4.80;3.23;;;11.60;99.90;;;;;;4980674;28;20213;-88
2023/01/07 03:01:28;;;;;;;3.93;3.07;;;11.60;99.90;;;;;;4975606;28;20171;-87
2023/01/07 03:04:27;;;;;;;4.33;3.07;;;11.60;99.90;;;;;;4953491;28;20192;-88
2023/01/07 03:07:27;;;;;;;4.50;2.70;;;11.60;99.90;;;;;;4977909;28;20202;-90
2023/01/07 03:10:28;;;;;;;4.40;2.70;;;11.50;99.90;;;;;;4975649;28;20191;-89
2023/01/07 03:13:07;;;;;;;4.50;2.97;;;11.50;99.90;;;;;;4977982;28;20207;-88
2023/01/07 03:15:43;;;;;;;3.50;2.30;;;11.70;99.90;;;;;;4998021;28;20163;-88
2023/01/07 03:18:18;;;;;;;4.87;2.63;;;11.70;99.90;;;;;;4979128;28;20175;-89
2023/01/07 03:20:47;;;;;;;3.83;2.60;;;11.70;99.90;;;;;;4977110;28;20218;-89
2023/01/07 03:23:16;;;;;;;4.67;2.50;;;11.70;99.90;;;;;;4976102;28;20194;-89
2023/01/07 03:25:44;;;;;;;7.23;2.93;;;11.60;99.90;;;;;;4976092;28;20579;-89
2023/01/07 03:28:12;;;;;;;4.23;2.33;;;11.60;99.90;;;;;;4976176;28;20190;-88
2023/01/07 03:30:38;;;;;;;5.30;2.43;;;11.60;99.90;;;;;;4977316;28;20191;-89
2023/01/07 03:33:12;;;;;;;4.20;2.20;;;11.70;99.90;;;;;;4977942;28;20175;-88
2023/01/07 03:35:41;;;;;;;5.23;2.33;;;11.70;99.90;;;;;;4980753;28;20646;-88
2023/01/07 03:38:08;;;;;;;5.60;2.23;;;11.70;99.90;;;;;;4997851;28;20164;-89
2023/01/07 03:40:36;;;;;;;3.63;1.80;;;11.60;99.90;;;;;;4998588;28;20160;-88
2023/01/07 03:43:21;;;;;;;3.30;1.77;;;11.60;99.90;;;;;;4996426;28;20182;-81
2023/01/07 03:45:50;;;;;;;4.87;1.97;;;11.70;99.90;;;;;;4982462;28;20271;-87
2023/01/07 03:48:19;;;;;;;2.60;2.03;;;11.70;99.90;;;;;;4976071;28;20212;-89
2023/01/07 03:50:45;;;;;;;3.37;1.90;;;11.70;99.90;;;;;;4976831;28;20548;-88
2023/01/07 03:53:12;;;;;;;3.10;1.73;;;11.60;99.90;;;;;;4975134;28;20194;-88
2023/01/07 03:55:38;;;;;;;4.20;2.17;;;11.60;99.90;;;;;;4976841;28;20576;-88
2023/01/07 03:58:03;;;;;;;5.83;2.37;;;11.60;99.90;;;;;;4977081;28;20195;-88
2023/01/07 04:00:31;;;;;;;5.60;2.17;;;11.60;99.90;;;;;;4975873;28;20623;-89
2023/01/07 04:02:57;;;;;;;4.77;1.80;;;11.60;99.90;;;;;;4975943;28;20175;-89
2023/01/07 04:05:23;;;;;;;3.67;1.90;;;11.60;99.90;;;;;;4975376;28;20570;-89
2023/01/07 04:07:49;;;;;;;3.47;1.80;;;11.50;99.90;;;;;;4976726;28;20211;-86
2023/01/07 04:10:15;;;;;;;3.47;1.80;;;11.50;99.90;;;;;;4975038;28;20537;-83
2023/01/07 04:12:41;;;;;;;3.90;1.67;;;11.50;99.90;;;;;;4975460;28;20183;-85
2023/01/07 04:15:08;;;;;;;3.07;1.90;;;11.50;99.90;;;;;;4979637;28;20659;-83
2023/01/07 04:17:33;;;;;;;2.67;1.57;;;11.50;99.90;;;;;;4981393;28;20182;-85
2023/01/07 04:19:59;;;;;;;2.67;1.70;;;11.50;99.90;;;;;;4981316;28;20179;-85
2023/01/07 04:22:25;;;;;;;3.20;1.87;;;11.50;99.40;;;;;;4981678;28;20184;-80
2023/01/07 04:24:50;;;;;;;4.07;1.70;;;11.50;98.70;;;;;;4998251;28;20610;-82
2023/01/07 04:27:16;;;;;;;2.70;1.50;;;11.50;98.80;;;;;;4989192;28;20164;-82
2023/01/07 04:29:48;;;;;;;3.87;1.33;;;11.50;98.50;;;;;;4982565;28;20628;-82
2023/01/07 04:32:13;;;;;;;3.73;2.00;;;11.50;97.00;;;;;;4978460;28;20233;-85
2023/01/07 04:34:39;;;;;;;1.43;1.10;;;11.50;96.50;;;;;;4981546;28;20176;-81
2023/01/07 04:37:05;;;;;;;3.87;1.70;;;11.40;96.60;;;;;;4981313;28;20195;-83
2023/01/07 04:39:31;;;;;;;2.20;1.20;;;11.50;95.70;;;;;;4993436;28;20230;-81
2023/01/07 04:41:59;;;;;;;5.30;1.70;;;11.70;95.10;;;;;;4987345;28;20196;-84
2023/01/07 04:44:28;;;;;;;1.60;1.20;;;11.50;93.70;;;;;;4978693;28;20176;-84
2023/01/07 04:46:54;;;;;;;2.47;1.10;;;11.50;92.80;;;;;;4978354;28;20250;-86
2023/01/07 04:49:19;;;;;;;3.07;1.27;;;11.50;92.20;;;;;;4990300;28;20172;-85
2023/01/07 04:51:45;;;;;;;2.73;1.37;;;11.50;91.60;;;;;;4988929;28;20176;-85
2023/01/07 04:54:13;;;;;;;2.47;1.40;;;11.50;90.50;;;;;;4989477;28;20179;-82
2023/01/07 04:56:38;;;;;;;3.17;1.20;;;11.50;90.50;;;;;;4974759;28;20592;-82
2023/01/07 04:59:08;;;;;;;3.03;1.30;;;11.50;90.10;;;;;;4988149;28;20175;-84
2023/01/07 05:01:37;;;;;;;2.03;1.10;;;11.50;89.10;;;;;;4980021;28;20171;-89
2023/01/07 05:04:12;;;;;;;3.27;1.50;;;11.60;88.60;;;;;;4980085;28;20246;-86
2023/01/07 05:06:38;;;;;;;1.63;1.20;;;11.60;87.70;;;;;;4978515;28;20242;-87
2023/01/07 05:09:04;;;;;;;1.63;1.13;;;11.50;85.00;;;;;;4978293;28;20632;-86
2023/01/07 05:11:30;;;;;;;3.57;2.03;;;11.60;84.30;;;;;;4980220;28;20168;-88
2023/01/07 05:13:59;;;;;;;2.07;1.23;;;11.60;84.90;;;;;;4978037;28;20678;-87
2023/01/07 05:16:25;;;;;;;1.77;1.17;;;11.50;84.10;;;;;;4978561;28;20177;-87
2023/01/07 05:18:51;;;;;;;4.13;1.33;;;11.60;83.80;;;;;;4978873;28;20187;-89
2023/01/07 05:21:16;;;;;;;2.37;1.00;;;11.60;83.00;;;;;;4979126;28;20172;-88
2023/01/07 05:23:43;;;;;;;2.03;1.23;;;11.60;81.40;;;;;;4977261;28;20581;-87
2023/01/07 05:26:08;;;;;;;2.10;1.20;;;11.60;81.10;;;;;;4978554;28;20223;-88
2023/01/07 05:28:34;;;;;;;3.33;1.30;;;11.60;80.50;;;;;;4978019;28;20180;-86
2023/01/07 05:31:00;;;;;;;2.67;1.10;;;11.60;79.70;;;;;;4980356;28;20176;-88
2023/01/07 05:33:25;;;;;;;2.80;1.33;;;11.60;79.00;;;;;;4979100;28;20586;-89
2023/01/07 05:35:51;;;;;;;2.70;1.33;;;11.60;79.80;;;;;;4977639;28;20187;-89
2023/01/07 05:38:17;;;;;;;1.83;1.10;;;11.60;79.70;;;;;;4978755;28;20179;-89
2023/01/07 05:40:42;;;;;;;3.10;1.13;;;11.60;78.80;;;;;;4977571;28;20203;-89
2023/01/07 05:43:08;;;;;;;2.13;0.90;;;11.60;79.60;;;;;;4981964;28;20217;-88
2023/01/07 05:45:34;;;;;;;2.13;1.20;;;11.60;78.40;;;;;;5000594;28;20187;-89
2023/01/07 05:47:59;;;;;;;1.53;1.00;;;11.40;79.10;;;;;;5000718;28;20163;-87
2023/01/07 05:50:28;;;;;;;2.47;1.10;;;11.50;79.00;;;;;;4999731;28;20179;-89
2023/01/07 05:53:00;;;;;;;1.90;1.00;;;11.50;77.30;;;;;;4990679;28;20167;-89
2023/01/07 05:55:26;;;;;;;1.90;1.27;;;11.50;76.40;;;;;;5000329;28;20211;-88
2023/01/07 05:57:51;;;;;;;2.03;1.17;;;11.60;75.50;;;;;;5000322;28;20203;-89
2023/01/07 06:00:23;;;;;;;1.77;1.10;;;11.50;76.80;;;;;;4998957;28;20175;-87
2023/01/07 06:02:54;;;;;;;2.93;1.50;;;11.50;76.20;;;;;;4990413;28;20166;-87
2023/01/07 06:05:21;;;;;;;2.60;1.00;;;11.50;76.30;;;;;;4981214;28;20656;-89
2023/01/07 06:07:49;;;;;;;2.03;1.10;;;11.50;76.40;;;;;;4980037;28;20172;-88
2023/01/07 06:10:15;;;;;;;1.37;1.00;;;11.50;75.90;;;;;;4981831;28;20182;-89
2023/01/07 06:12:41;;;;;;;3.87;1.13;;;11.50;76.00;;;;;;4979973;28;20180;-87
2023/01/07 06:15:08;;;;;;;1.40;1.00;;;11.50;75.60;;;;;;4976533;28;20172;-86
2023/01/07 06:17:34;;;;;;;2.33;1.20;;;11.50;75.70;;;;;;4976539;28;20175;-86
2023/01/07 06:20:01;;;;;;;2.80;1.40;;;11.50;75.10;;;;;;4977014;28;20164;-87
2023/01/07 06:22:27;;;;;;;1.60;1.00;;;11.50;75.60;;;;;;4977378;28;20192;-84
2023/01/07 06:24:52;;;;;;;1.80;1.20;;;11.50;75.00;;;;;;4996167;28;20208;-82
2023/01/07 06:27:21;;;;;;;1.80;1.00;;;11.60;74.70;;;;;;4984166;28;20191;-87
2023/01/07 06:29:47;;;;;;;1.73;1.00;;;11.60;74.40;;;;;;4987749;28;20179;-81
2023/01/07 06:32:12;;;;;;;2.60;1.00;;;11.60;73.50;;;;;;4990135;28;20184;-88
2023/01/07 06:34:40;;;;;;;2.30;1.10;;;11.70;74.30;;;;;;4977506;28;20715;-86
2023/01/07 06:37:06;;;;;;;1.73;1.13;;;11.60;73.80;;;;;;4975307;28;20181;-85
2023/01/07 06:39:32;;;;;;;2.23;1.30;;;11.60;73.30;;;;;;4977509;28;20230;-87
2023/01/07 06:42:19;;;;;;;2.03;1.20;;;11.50;73.10;;;;;;4976018;28;20692;-86
2023/01/07 06:44:46;;;;;;;3.20;1.20;;;11.50;72.90;;;;;;4987423;28;20211;-83
2023/01/07 06:47:11;;;;;;;2.07;1.30;;;11.50;73.60;;;;;;4989207;28;20183;-88
2023/01/07 06:49:40;;;;;;;3.20;1.10;;;11.50;72.50;;;;;;4985522;28;20659;-88
2023/01/07 06:52:07;;;;;;;2.47;1.17;;;11.50;72.50;;;;;;4975920;28;20226;-82
2023/01/07 06:54:33;;;;;;;1.87;1.03;;;11.50;73.30;;;;;;4975483;28;20207;-88
2023/01/07 06:56:59;;;;;;;2.10;0.93;;;11.50;74.10;;;;;;4992506;28;20191;-84
2023/01/07 06:59:24;;;;;;;1.20;0.80;;;11.50;72.40;;;;;;4979121;28;20174;-86
2023/01/07 07:01:53;;;;;;;2.23;1.10;;;11.50;71.70;;;;;;4975701;28;20172;-88
2023/01/07 07:04:18;;;;;;;1.47;0.80;;;11.60;70.80;;;;;;4975713;28;20534;-88
2023/01/07 07:06:44;;;;;;;2.03;0.97;;;11.50;69.80;;;;;;4976751;28;20186;-90
2023/01/07 07:09:10;;;;;;;2.00;1.10;;;11.50;70.30;;;;;;4975809;28;20175;-88
2023/01/07 07:11:35;;;;;;;1.57;0.80;;;11.50;69.50;;;;;;4980646;28;20234;-82
2023/01/07 07:14:02;;;;;;;2.40;1.10;;;11.40;66.50;;;;;;4990505;28;20673;-84
2023/01/07 07:16:28;;;;;;;1.60;0.80;;;11.40;65.30;;;;;;4978457;28;20698;-83
2023/01/07 07:18:54;;;;;;;2.13;1.20;;;11.40;64.70;;;;;;4980248;28;20263;-82
2023/01/07 07:21:20;;;;;;;2.20;0.90;;;11.50;62.80;;;;;;4984555;28;20175;-82
2023/01/07 07:23:45;;;;;;;1.20;0.87;;;11.50;60.60;;;;;;4984218;28;20168;-85
2023/01/07 07:26:13;;;;;;;0.90;0.63;;;11.50;58.60;;;;;;4977489;28;20219;-86
2023/01/07 07:28:41;;;;;;;1.60;0.80;;;11.50;55.20;;;;;;4976297;28;20274;-88
2023/01/07 07:31:08;;;;;;;1.10;0.80;;;11.40;51.80;;;;;;4975791;28;20172;-88
2023/01/07 07:33:34;;;;;;;0.97;0.70;;;11.50;51.30;;;;;;4975862;28;20180;-87
2023/01/07 07:36:00;;;;;;;2.00;0.90;;;11.60;47.60;;;;;;4976739;28;20176;-85
2023/01/07 07:38:25;;;;;;;2.10;0.73;;;11.60;46.60;;;;;;4980097;28;20175;-87
2023/01/07 07:40:51;;;;;;;1.10;0.77;;;11.60;47.30;;;;;;4975451;28;20229;-84
2023/01/07 07:43:16;;;;;;;1.23;0.90;;;11.60;47.20;;;;;;4977246;28;20182;-84
2023/01/07 07:45:43;;;;;;;3.87;0.93;;;11.70;47.70;;;;;;4975642;28;20298;-84
2023/01/07 07:48:12;;;;;;;1.33;0.90;;;11.60;46.30;;;;;;4979299;28;20167;-85
2023/01/07 07:50:38;;;;;;;1.43;0.77;;;11.70;46.10;;;;;;4984038;28;20171;-84
2023/01/07 07:53:03;;;;;;;2.10;1.10;;;11.60;45.90;;;;;;4990679;28;20227;-89
2023/01/07 07:55:29;;;;;;;1.83;1.07;;;11.70;45.40;;;;;;4986316;28;20563;-89
2023/01/07 07:57:57;;;;;;;1.33;0.90;;;11.60;46.70;;;;;;4989305;28;20196;-88
2023/01/07 08:00:26;;;;;;;1.23;1.00;;;11.70;47.60;;;;;;5005378;28;20163;-86
2023/01/07 08:02:58;;;;;;;1.57;0.80;;;11.70;48.50;;;;;;4991706;28;20180;-88
2023/01/07 08:05:24;;;;;;;1.20;0.80;;;11.70;47.60;;;;;;4983825;28;20622;-89
2023/01/07 08:07:50;;;;;;;2.20;1.30;;;11.60;48.10;;;;;;4984244;28;20183;-89
2023/01/07 08:10:16;;;;;;;1.87;0.90;;;11.70;48.90;;;;;;4982904;28;20564;-88
2023/01/07 08:12:42;;;;;;;1.90;1.00;;;11.50;50.70;;;;;;4987819;28;20171;-88
2023/01/07 08:15:08;;;;;;;0.87;0.80;;;11.50;52.00;;;;;;4995468;28;20180;-84
2023/01/07 08:17:35;;;;;;;1.13;0.90;;;11.60;52.70;;;;;;4996114;28;20176;-85
2023/01/07 08:20:05;;;;;;;1.50;1.13;;;11.60;52.30;;;;;;4989595;28;20173;-85
2023/01/07 08:22:32;;;;;;;2.67;1.00;;;11.50;54.10;;;;;;4982342;28;20179;-86
2023/01/07 08:24:58;;;;;;;2.10;1.10;;;11.60;54.70;;;;;;4983188;28;20207;-86
2023/01/07 08:27:26;;;;;;;2.63;1.17;;;11.40;56.30;;;;;;4982404;28;20174;-84
2023/01/07 08:29:52;;;;;;;1.97;1.23;;;11.50;56.50;;;;;;4982012;28;20185;-87
2023/01/07 08:32:18;;;;;;;2.07;1.30;;;11.50;57.50;;;;;;4983768;28;20193;-86
2023/01/07 08:34:44;;;;;;;2.20;1.30;;;11.40;58.30;;;;;;4984978;28;20230;-83
2023/01/07 08:37:10;;;;;;;2.43;1.23;;;11.40;60.00;;;;;;4999589;28;20191;-86
2023/01/07 08:39:36;;;;;;;1.90;1.20;;;11.50;61.50;;;;;;4999045;28;20180;-85
2023/01/07 08:42:05;;;;;;;1.77;1.27;;;11.40;63.50;;;;;;4986548;28;20191;-85
2023/01/07 08:44:33;;;;;;;2.90;1.60;;;11.30;62.10;;;;;;4981830;28;20580;-89
2023/01/07 08:46:59;;;;;;;1.73;1.00;;;11.40;61.80;;;;;;4981622;28;20171;-86
2023/01/07 08:49:25;;;;;;;2.03;1.10;;;11.40;61.60;;;;;;4981425;28;20243;-87
2023/01/07 08:51:51;;;;;;;2.80;1.20;;;11.30;36.10;;;;;;4995724;28;20172;-87
2023/01/07 08:54:16;;;;;;;1.47;1.20;;;11.40;37.40;;;;;;4999048;28;20176;-86
2023/01/07 08:56:42;;;;;;;2.60;1.30;;;11.40;34.30;;;;;;4987322;28;20183;-84
2023/01/07 08:59:08;;;;;;;1.30;1.00;;;11.40;35.20;;;;;;4980970;28;20240;-82
2023/01/07 09:01:33;;;;;;;3.13;1.23;;;11.40;35.80;;;;;;4980325;28;20167;-87
2023/01/07 09:03:59;;;;;;;1.80;1.10;;;11.50;38.20;;;;;;4981057;28;20196;-86
2023/01/07 09:06:25;;;;;;;1.87;1.20;;;11.40;38.80;;;;;;4982285;28;20223;-86
2023/01/07 09:08:50;;;;;;;1.90;1.00;;;11.40;36.50;;;;;;4979347;28;20171;-84
2023/01/07 09:11:16;;;;;;;1.30;1.10;;;11.50;35.20;;;;;;4979608;28;20206;-85
2023/01/07 09:13:42;;;;;;;3.43;1.30;;;11.50;33.00;;;;;;4977844;28;20184;-87
2023/01/07 09:16:09;;;;;;;3.33;1.10;;;11.60;31.80;;;;;;4985886;28;20175;-83
2023/01/07 09:18:34;;;;;;;3.00;1.57;;;11.60;32.30;;;;;;4982224;28;20175;-86
2023/01/07 09:21:06;;;;;;;2.60;1.10;;;11.60;30.00;;;;;;4978693;28;20171;-84
2023/01/07 09:23:31;;;;;;;2.27;1.67;;;11.60;28.10;;;;;;4976883;28;20213;-82
2023/01/07 09:25:57;;;;;;;2.70;1.00;;;11.70;28.80;;;;;;4977020;28;20243;-85
2023/01/07 09:28:23;;;;;;;2.17;1.33;;;11.60;27.90;;;;;;4977154;28;20179;-86
2023/01/07 09:30:48;;;;;;;2.33;1.40;;;11.60;30.10;;;;;;4983307;28;20639;-83
2023/01/07 09:33:14;;;;;;;2.57;1.07;;;11.70;30.00;;;;;;4989345;28;20644;-86
2023/01/07 09:35:40;;;;;;;1.73;1.10;;;11.70;27.80;;;;;;4992976;28;20270;-81
2023/01/07 09:38:08;;;;;;;2.67;1.20;;;11.60;25.40;;;;;;4983866;28;20168;-86
2023/01/07 09:40:38;;;;;;;2.43;1.20;;;11.60;27.70;;;;;;4978023;28;20180;-85
2023/01/07 09:43:15;;;;;;;2.63;1.40;;;11.70;27.70;;;;;;4981072;28;20699;-85
2023/01/07 09:45:51;;;;;;;1.83;1.23;;;11.70;26.90;;;;;;4980113;28;20291;-86
2023/01/07 09:48:30;;;;;;;2.37;1.20;;;11.70;27.60;;;;;;4979411;28;20179;-83
2023/01/07 09:51:22;;;;;;;2.30;1.20;;;11.80;25.70;;;;;;4976656;28;20179;-86
2023/01/07 09:53:53;;;;;;;2.23;1.63;;;11.90;23.20;;;;;;4976758;28;20253;-84
2023/01/07 09:56:35;;;;;;;1.67;1.27;;;11.80;26.10;;;;;;4976780;28;20588;-85
2023/01/07 09:59:04;;;;;;;2.23;1.30;;;11.80;25.80;;;;;;4976391;28;20188;-86
2023/01/07 10:01:56;;;;;;;2.17;1.20;;;11.80;26.30;;;;;;4977050;28;20230;-89
2023/01/07 10:04:31;;;;;;;3.20;1.40;;;11.70;24.30;;;;;;4980033;28;20194;-87
2023/01/07 10:07:25;;;;;;;2.50;1.40;;;11.80;25.20;;;;;;4992245;28;20190;-86
2023/01/07 10:10:12;;;;;;;2.00;1.50;;;11.90;23.60;;;;;;4999253;28;20169;-83
2023/01/07 10:13:19;;;;;;;4.33;1.30;;;11.90;21.10;;;;;;4994124;28;20227;-84
2023/01/07 10:16:04;;;;;;;3.20;1.30;;;11.90;17.50;;;;;;4985031;28;20177;-86
2023/01/07 10:18:47;;;;;;;1.67;1.20;;;12.00;15.50;;;;;;4988233;28;20231;-87
2023/01/07 10:21:46;;;;;;;2.10;1.23;;;12.00;13.00;;;;;;4980007;28;20183;-86
2023/01/07 10:24:47;;;;;;;2.17;1.23;;;12.10;10.80;;;;;;4980185;28;20215;-86
2023/01/07 10:27:17;;;;;;;3.37;1.37;;;12.00;5.80;;;;;;4979357;28;20722;-89
2023/01/07 10:29:47;;;;;;;2.77;1.27;;;12.00;7.30;;;;;;4991760;28;20176;-86
2023/01/07 10:32:21;;;;;;;2.90;1.20;;;12.10;4.00;;;;;;4998512;28;20187;-86
2023/01/07 10:34:52;;;;;;;1.63;1.30;;;12.20;1.00;;;;;;4997263;28;20184;-86
2023/01/07 10:37:38;;;;;;;2.63;1.17;;;12.20;1.00;;;;;;4991306;28;20166;-85
2023/01/07 10:40:29;;;;;;;1.93;1.20;;;12.30;1.00;;;;;;4978455;28;20180;-88
2023/01/07 10:43:10;;;;;;;2.30;1.33;;;12.30;1.00;;;;;;4987034;28;20184;-86
2023/01/07 10:45:43;;;;;;;2.67;1.40;;;12.30;1.00;;;;;;4990966;28;20206;-87
2023/01/07 10:48:39;;;;;;;3.00;1.30;;;12.30;1.00;;;;;;4982659;28;20160;-85
2023/01/07 10:51:25;;;;;;;1.87;1.50;;;12.30;1.00;;;;;;4985191;28;20171;-83
2023/01/07 10:54:19;;;;;;;2.20;1.40;;;12.40;1.00;;;;;;4985565;28;20168;-87
2023/01/07 10:56:57;;;;;;;3.40;1.80;;;12.30;1.00;;;;;;4993897;28;20177;-82
2023/01/07 10:59:24;;;;;;;3.33;1.80;;;12.50;1.00;;;;;;4994790;28;20180;-86
2023/01/07 11:02:20;;;;;;;3.17;1.50;;;12.60;1.00;;;;;;4986275;28;20176;-86
2023/01/07 11:04:46;;;;;;;3.30;1.70;;;12.70;1.00;;;;;;4981706;28;20278;-89
2023/01/07 11:07:23;;;;;;;2.63;1.50;;;12.70;1.00;;;;;;4987146;28;20747;-85
2023/01/07 11:09:52;;;;;;;4.13;2.47;;;12.70;1.00;;;;;;4987381;28;20180;-87
2023/01/07 11:12:34;;;;;;;3.67;2.90;;;12.70;1.00;;;;;;4978646;28;20178;-86
2023/01/07 11:15:07;;;;;;;3.77;1.80;;;12.80;1.00;;;;;;4975195;28;20164;-84
2023/01/07 11:18:20;;;;;;;5.33;2.70;;;12.90;1.00;;;;;;4978046;28;20766;-86
2023/01/07 11:20:51;;;;;;;3.83;1.50;;;12.90;1.00;;;;;;4949674;28;20271;-86
2023/01/07 11:23:42;;;;;;;2.33;1.60;;;12.70;1.00;;;;;;4974852;28;20176;-89
2023/01/07 11:26:10;;;;;;;2.53;1.47;;;12.60;1.00;;;;;;4977870;28;20211;-87
2023/01/07 11:28:40;;;;;;;4.40;1.57;;;12.70;1.00;;;;;;4979266;28;20158;-88
2023/01/07 11:31:05;;;;;;;5.07;3.73;;;12.70;1.00;;;;;;4981694;28;20211;-88
2023/01/07 11:33:45;;;;;;;2.37;1.50;;;12.70;1.00;;;;;;4990609;28;20186;-84
2023/01/07 11:36:12;;;;;;;2.77;1.40;;;12.60;1.00;;;;;;4986429;28;20192;-87
2023/01/07 11:38:40;;;;;;;2.63;1.67;;;12.90;1.00;;;;;;4985527;28;20190;-86
2023/01/07 11:41:20;;;;;;;1.90;1.50;;;12.80;1.00;;;;;;4980534;28;20298;-84
2023/01/07 11:43:51;;;;;;;2.57;1.80;;;12.70;1.00;;;;;;4977220;28;20172;-86
2023/01/07 11:46:20;;;;;;;2.80;1.60;;;12.80;1.00;;;;;;4976017;28;20615;-86
2023/01/07 11:49:04;;;;;;;2.47;1.70;;;12.80;1.00;;;;;;4988888;28;20164;-85
2023/01/07 11:51:39;;;;;;;1.60;1.20;;;12.90;1.00;;;;;;4980047;28;20657;-84
2023/01/07 11:54:07;;;;;;;2.97;1.73;;;12.80;1.00;;;;;;4976220;28;20250;-90
2023/01/07 11:56:33;;;;;;;2.53;1.60;;;12.70;1.00;;;;;;4977467;28;20179;-82
2023/01/07 11:59:12;;;;;;;3.00;1.50;;;12.80;1.00;;;;;;4976595;28;20317;-83
2023/01/07 12:01:49;;;;;;;4.57;1.70;;;12.80;1.00;;;;;;4975619;28;20164;-83
2023/01/07 12:04:35;;;;;;;2.13;1.50;;;12.70;1.00;;;;;;4986033;28;20239;-82
2023/01/07 12:07:05;;;;;;;3.13;1.50;;;12.80;1.00;;;;;;4991536;28;20248;-87
2023/01/07 12:09:31;;;;;;;2.87;1.40;;;12.90;1.00;;;;;;4986376;28;20207;-82
2023/01/07 12:11:59;;;;;;;3.73;1.50;;;12.80;1.00;;;;;;4976446;28;20172;-83
2023/01/07 12:14:30;;;;;;;3.03;1.50;;;12.80;1.00;;;;;;4974070;28;20222;-84
2023/01/07 12:17:44;;;;;;;2.47;1.40;;;12.80;1.00;;;;;;4975067;28;20648;-81
2023/01/07 12:20:28;;;;;;;1.57;1.20;;;12.80;1.00;;;;;;4975963;28;20198;-82
2023/01/07 12:23:35;;;;;;;3.10;1.50;;;12.90;1.00;;;;;;4974488;28;20168;-85
2023/01/07 12:26:15;;;;;;;2.73;1.40;;;12.90;1.00;;;;;;4975290;28;20210;-87
2023/01/07 12:28:58;;;;;;;3.77;1.70;;;12.90;1.00;;;;;;4973258;28;20199;-89
2023/01/07 12:31:36;;;;;;;2.97;1.50;;;12.90;1.00;;;;;;4973938;28;20183;-83
2023/01/07 12:34:38;;;;;;;2.87;1.47;;;13.00;1.00;;;;;;4974017;28;20186;-83
2023/01/07 12:37:26;;;;;;;1.80;1.20;;;12.90;1.00;;;;;;4978327;28;20185;-83
2023/01/07 12:40:00;;;;;;;2.23;1.40;;;12.90;1.00;;;;;;4981956;28;20267;-88
2023/01/07 12:42:31;;;;;;;2.37;1.20;;;13.20;1.00;;;;;;4987985;28;20286;-85
2023/01/07 12:45:02;;;;;;;2.90;1.33;;;13.10;1.00;;;;;;4996892;28;20194;-90
2023/01/07 12:47:49;;;;;;;2.43;1.30;;;13.20;1.00;;;;;;4990212;28;20591;-88
2023/01/07 12:50:37;;;;;;;3.47;1.40;;;13.30;1.00;;;;;;4979751;28;20170;-88
2023/01/07 12:53:33;;;;;;;2.20;1.50;;;13.20;1.00;;;;;;4980695;28;20169;-88
2023/01/07 12:56:24;;;;;;;2.77;1.57;;;13.30;1.00;;;;;;4980732;28;20205;-83
2023/01/07 12:58:57;;;;;;;2.37;1.47;;;13.40;1.00;;;;;;4998665;28;20199;-85
2023/01/07 13:01:28;;;;;;;1.90;1.40;;;13.40;1.00;;;;;;4984184;28;20174;-87
2023/01/07 13:04:12;;;;;;;2.63;1.47;;;13.50;1.00;;;;;;4979063;28;20225;-86
2023/01/07 13:06:59;;;;;;;2.87;1.57;;;13.40;1.00;;;;;;4978358;28;20225;-88
2023/01/07 13:09:55;;;;;;;3.13;1.80;;;13.40;1.00;;;;;;4977998;28;20183;-84
2023/01/07 13:12:46;;;;;;;3.57;1.70;;;13.30;1.00;;;;;;4979583;28;20213;-85
2023/01/07 13:15:28;;;;;;;2.70;1.77;;;13.30;1.00;;;;;;4979123;28;20180;-88